• Join FlightAware (Why Join?)
  • Login
  • US Flag 
10:42AM EDT


 

Airport Tracker/Info


-or-


 

Live Flight TrackerFlight Track Log ✈ EJM20 ✈ 29-Jun-2013 ✈ KJQF - KFTW

Flight Track Log - Related Links

Times and Time Zones

All times are in EDT time to prevent confusion due to time zone crossing. See the EJM20 flight status page for this flight to view local times or setup timezone preferences in your user account.

Time Position Orientation Groundspeed Altitude Reporting Facility
EDT Latitude Longitude Course Direction KTS MPH feet Rate Location/Type
05:32PM 35.3408 -80.6856 146° Southeast 202 232 2,700  Level Atlanta Center
05:33PM 35.2853 -80.6394 146° Southeast 249 287 3,000 1,320 Climbing Atlanta Center
05:34PM 35.2297 -80.5986 149° Southeast 249 287 5,500 2,700 Climbing Atlanta Center
05:36PM 35.1969 -80.6967 248° West 229 264 9,800 2,520 Climbing Atlanta Center
05:37PM 35.1933 -80.7856 267° West 248 285 11,800 2,040 Climbing Atlanta Center
05:38PM 35.1894 -80.8850 267° West 282 325 13,900 1,920 Climbing Atlanta Center
05:39PM 35.1861 -80.9917 268° West 305 351 15,700 1,860 Climbing Atlanta Center
05:40PM 35.1781 -81.0989 265° West 312 359 17,700 2,100 Climbing Atlanta Center
05:41PM 35.1703 -81.2033 265° West 312 359 20,000 2,040 Climbing Atlanta Center
05:42PM 35.1622 -81.3153 265° West 320 368 21,800 1,620 Climbing Atlanta Center
05:43PM 35.1539 -81.4147 264° West 320 368 23,300 1,620 Climbing Atlanta Center
05:44PM 35.1439 -81.5267 264° West 332 382 25,100 1,800 Climbing Atlanta Center
05:45PM 35.1356 -81.6361 265° West 332 382 26,900 1,680 Climbing Atlanta Center
05:46PM 35.1294 -81.7481 266° West 332 382 28,500 1,620 Climbing Atlanta Center
05:47PM 35.1192 -81.8678 264° West 332 382 30,200 1,620 Climbing Atlanta Center
05:48PM 35.1106 -81.9822 265° West 337 388 31,800 1,560 Climbing Atlanta Center
05:49PM 35.1019 -82.0942 265° West 332 382 33,400 1,200 Climbing Atlanta Center
05:50PM 35.0933 -82.2086 265° West 332 382 34,300 1,140 Climbing Atlanta Center
05:51PM 35.1136 -82.3097 284° West 338 389 35,700 840 Climbing Atlanta Center
05:52PM 35.1650 -82.4178 300° West 344 396 36,000 120 Climbing Atlanta Center
05:53PM 35.2314 -82.5486 302° West 400 460 36,000 300 Level Atlanta Center
05:54PM 35.2828 -82.6522 301° West 405 466 36,700 1,080 Climbing Atlanta Center
05:55PM 35.3403 -82.7633 302° West 399 459 38,200 1,440 Climbing Atlanta Center
05:56PM 35.3831 -82.8772 295° West 386 444 39,600 900 Climbing Atlanta Center
05:57PM 35.3781 -83.0122 267° West 361 415 40,000 180 Climbing Atlanta Center
05:58PM 35.3728 -83.1422 267° West 361 415 40,000  Level Atlanta Center
05:59PM 35.3694 -83.2722 268° West 380 437 40,000  Level Atlanta Center
06:00PM 35.3661 -83.4019 268° West 386 444 40,000  Level Atlanta Center
06:01PM 35.3583 -83.5319 266° West 386 444 40,000  Level Atlanta Center
06:02PM 35.3525 -83.6619 267° West 386 444 40,000  Level Atlanta Center
06:03PM 35.3467 -83.7714 266° West 386 444 40,000  Level Atlanta Center
06:04PM 35.3386 -83.9242 266° West 386 444 40,000  Level Atlanta Center
06:05PM 35.3344 -84.0539 268° West 386 444 40,000  Level Atlanta Center
06:06PM 35.3281 -84.1864 267° West 386 444 40,000 480 Level Atlanta Center
06:07PM 35.3217 -84.3161 267° West 386 444 41,000 900 Climbing Atlanta Center
06:08PM 35.3150 -84.4408 266° West 381 438 41,900 780 Climbing Atlanta Center
06:09PM 35.3083 -84.5606 266° West 375 432 42,600 540 Climbing Atlanta Center
06:10PM 35.3036 -84.6853 267° West 369 425 43,000 180 Climbing Atlanta Center
06:11PM 35.2964 -84.8097 266° West 369 425 43,000  Level Atlanta Center
06:12PM 35.2872 -84.9419 265° West 369 425 43,000  Level Atlanta Center
06:13PM 35.2822 -85.0717 267° West 380 437 43,000  Level Atlanta Center
06:14PM 35.2747 -85.1911 266° West 386 444 43,000  Level Atlanta Center
06:15PM 35.2672 -85.3233 266° West 391 450 43,000  Level Atlanta Center
06:16PM 35.2594 -85.4581 266° West 396 456 43,000  Level Atlanta Center
06:17PM 35.2519 -85.5647 265° West 396 456 43,000  Level Atlanta Center
06:18PM 35.2436 -85.7300 267° West 402 463 43,000  Level Atlanta Center
06:19PM 35.2331 -85.8797 265° West 408 470 43,000  Level Atlanta Center
06:20PM 35.2267 -86.0144 267° West 408 470 43,000  Level Atlanta Center
06:21PM 35.2186 -86.1336 265° West 403 464 43,000  Level Atlanta Center
06:22PM 35.2078 -86.2706 265° West 409 471 43,000  Level Atlanta Center
06:23PM 35.1989 -86.4075 265° West 404 465 43,000  Level Atlanta Center
06:24PM 35.1933 -86.5000 266° West 406 467 43,000  Level Memphis Center
06:25PM 35.1850 -86.6350 266° West 396 456 43,000  Level Memphis Center
06:26PM 35.1767 -86.7700 266° West 406 467 43,000  Level Memphis Center
06:27PM 35.1697 -86.9000 266° West 406 467 43,000  Level Memphis Center
06:28PM 35.1589 -87.0375 265° West 401 461 43,000  Level Memphis Center
06:29PM 35.1500 -87.1750 266° West 408 470 43,000  Level Memphis Center
06:30PM 35.1408 -87.3100 265° West 408 470 43,000  Level Memphis Center
06:31PM 35.1297 -87.4475 264° West 408 470 43,000  Level Memphis Center
06:32PM 35.1164 -87.6028 264° West 414 476 43,000  Level Memphis Center
06:33PM 35.1047 -87.7403 264° West 409 471 43,000  Level Memphis Center
06:34PM 35.0950 -87.8725 265° West 396 456 43,000  Level Memphis Center
06:35PM 35.0853 -88.0072 265° West 396 456 43,000  Level Memphis Center
06:36PM 35.0731 -88.1419 264° West 396 456 43,000  Level Memphis Center
06:37PM 35.0647 -88.2692 265° West 414 476 43,000  Level Memphis Center
06:38PM 35.0544 -88.4014 265° West 409 471 43,000  Level Memphis Center
06:39PM 35.0400 -88.5436 263° West 397 457 43,000  Level Memphis Center
06:40PM 35.0294 -88.6808 265° West 397 457 43,000  Level Memphis Center
06:41PM 35.0164 -88.8103 263° West 397 457 43,000  Level Memphis Center
06:42PM 35.0075 -88.9475 266° West 404 465 43,000  Level Memphis Center
06:43PM 34.9964 -89.0669 264° West 404 465 43,000  Level Memphis Center
06:44PM 34.9831 -89.2014 263° West 404 465 43,000  Level Memphis Center
06:45PM 34.9717 -89.3333 264° West 398 458 43,000  Level Memphis Center
06:46PM 34.9603 -89.4653 264° West 398 458 43,000  Level Memphis Center
06:47PM 34.9508 -89.5944 265° West 393 452 43,000  Level Memphis Center
06:48PM 34.9286 -89.7339 259° West 398 458 43,000  Level Memphis Center
06:49PM 34.9167 -89.8658 264° West 403 464 43,000  Level Memphis Center
06:50PM 34.9069 -90.0481 266° West 424 488 43,000  Level Memphis Center
06:51PM 34.8944 -90.1825 264° West 406 467 43,000  Level Memphis Center
06:52PM 34.8800 -90.3089 262° West 391 450 43,000  Level Memphis Center
06:53PM 34.8656 -90.4431 263° West 391 450 43,000  Level Memphis Center
06:54PM 34.8550 -90.5569 264° West 391 450 43,000  Level Memphis Center
06:55PM 34.8400 -90.6886 262° West 391 450 43,000  Level Memphis Center
06:56PM 34.8272 -90.8200 263° West 391 450 43,000  Level Memphis Center
06:57PM 34.8142 -90.9514 263° West 391 450 43,000  Level Memphis Center
06:58PM 34.8008 -91.0803 263° West 391 450 43,000  Level Memphis Center
06:59PM 34.7856 -91.2092 262° West 384 442 43,000  Level Memphis Center
07:00PM 34.7719 -91.3533 263° West 391 450 43,000  Level Memphis Center
07:01PM 34.7583 -91.4844 263° West 391 450 43,000  Level Memphis Center
07:02PM 34.7425 -91.6133 262° West 391 450 43,000  Level Memphis Center
07:03PM 34.7264 -91.7394 261° West 391 450 43,000  Level Memphis Center
07:04PM 34.7125 -91.8731 263° West 386 444 43,000  Level Memphis Center
07:05PM 34.6983 -92.0042 263° West 386 444 43,000  Level Memphis Center
07:06PM 34.6839 -92.1353 262° West 393 452 43,000  Level Memphis Center
07:07PM 34.6550 -92.2633 255° West 393 452 43,000  Level Memphis Center
07:08PM 34.6236 -92.3889 253° West 393 452 43,000  Level Memphis Center
07:09PM 34.5861 -92.5217 251° West 399 459 43,000  Level Memphis Center
07:10PM 34.5525 -92.6494 252° West 399 459 43,000  Level Memphis Center
07:11PM 34.5186 -92.7769 252° West 399 459 43,000  Level Memphis Center
07:12PM 34.4828 -92.9044 251° West 407 468 43,000  Level Memphis Center
07:13PM 34.4489 -93.0319 252° West 407 468 43,000  Level Memphis Center
07:14PM 34.4147 -93.1617 252° West 401 461 43,000  Level Memphis Center
07:15PM 34.3781 -93.2964 252° West 407 468 43,000  Level Memphis Center
07:16PM 34.3311 -93.4878 254° West 425 489 43,000  Level Fort Worth Center
07:17PM 34.2956 -93.6203 252° West 420 483 43,000  Level Fort Worth Center
07:18PM 34.2744 -93.7542 259° West 420 483 43,000  Level Fort Worth Center
07:19PM 34.2719 -93.8900 269° West 415 478 43,000  Level Fort Worth Center
07:20PM 34.2739 -94.0283 271° West 410 472 43,000  Level Fort Worth Center
07:21PM 34.2736 -94.1742 270° West 415 478 43,000  Level Fort Worth Center
07:22PM 34.2728 -94.3097 270° West 421 484 43,000  Level Fort Worth Center
07:23PM 34.2719 -94.4531 270° West 421 484 43,000  Level Fort Worth Center
07:24PM 34.2333 -94.5850 251° West 421 484 43,000  Level Fort Worth Center
07:25PM 34.1903 -94.7144 248° West 421 484 43,000  Level Fort Worth Center
07:26PM 34.1494 -94.8511 250° West 432 497 43,000 -300 Level Fort Worth Center
07:27PM 34.1019 -94.9831 247° West 432 497 42,500 -1,560 Descending Fort Worth Center
07:28PM 34.0500 -95.1097 244° Southwest 432 497 39,900 -2,700 Descending Fort Worth Center
07:29PM 34.0061 -95.2236 245° Southwest 432 497 37,200 -2,640 Descending Fort Worth Center
07:30PM 33.9561 -95.3503 245° Southwest 427 491 34,700 -2,640 Descending Fort Worth Center
07:31PM 33.8997 -95.4842 243° Southwest 435 501 32,000 -2,700 Descending Fort Worth Center
07:32PM 33.8453 -95.6153 243° Southwest 441 507 29,400 -2,760 Descending Fort Worth Center
07:33PM 33.7931 -95.7564 246° West 446 513 26,600 -2,760 Descending Fort Worth Center
07:34PM 33.7425 -95.8847 245° Southwest 446 513 23,900 -2,820 Descending Fort Worth Center
07:35PM 33.6878 -96.0106 242° Southwest 402 463 21,000 -2,640 Descending Fort Worth Center
07:36PM 33.6431 -96.1286 246° West 394 453 18,700 -2,400 Descending Fort Worth Center
07:37PM 33.5919 -96.2489 243° Southwest 394 453 16,200 -2,460 Descending Fort Worth Center
07:38PM 33.5431 -96.3717 244° Southwest 405 466 13,800 -2,460 Descending Fort Worth Center
07:39PM 33.4981 -96.4844 244° Southwest 397 457 11,300 -2,220 Descending Fort Worth Center
07:40PM 33.4569 -96.5794 243° Southwest 350 403 9,500 -1,200 Descending Fort Worth Center
07:41PM 33.4008 -96.6497 226° Southwest 308 354 9,000 -840 Descending Fort Worth Center
07:42PM 33.3617 -96.7294 240° Southwest 289 333 7,900 -1,320 Descending Fort Worth Center
07:43PM 33.3308 -96.8142 246° West 283 326 6,400 -1,620 Descending Fort Worth Center
07:44PM 33.3061 -96.9039 252° West 283 326 4,700 -1,200 Descending Fort Worth Center
07:45PM 33.2814 -96.9961 252° West 289 333 4,000 -360 Descending Fort Worth Center
07:46PM 33.2589 -97.0881 254° West 289 333 4,000  Level Fort Worth Center
07:47PM 33.2000 -97.1333 213° Southwest 287 330 4,000  Level Dallas / Fort Worth TRACON
07:48PM 33.1333 -97.1667 203° Southwest 288 331 4,000 -480 Level Dallas / Fort Worth TRACON
07:49PM 33.0667 -97.2167 212° Southwest 274 315 3,100 -540 Descending Dallas / Fort Worth TRACON
07:50PM 33.0000 -97.2667 212° Southwest 289 333 3,000 -120 Descending Dallas / Fort Worth TRACON
07:51PM 32.9169 -97.3094 203° Southwest 285 328 2,900 -240 Descending Fort Worth Center
07:52PM 32.8439 -97.3072 179° South 273 314 2,500 -360 Descending Fort Worth Center
07:53PM 32.7875 -97.3169 188° South 230 265 2,200 -300 Descending Fort Worth Center
07:56PM 32.8198 -97.3624 310° West  Level Estimated
08:03PM 32.8198 -97.3624 239° Southwest  Level Estimated